createdAt,value
2023-02-05T00:01:32.651Z,7.13
2023-02-05T00:03:59.789Z,7.03
2023-02-05T00:06:27.117Z,7.01
2023-02-05T00:08:56.087Z,7.03
2023-02-05T00:11:23.077Z,7.02
2023-02-05T00:13:49.981Z,7.01
2023-02-05T00:16:21.338Z,6.97
2023-02-05T00:18:48.547Z,6.97
2023-02-05T00:21:16.922Z,6.94
2023-02-05T00:23:43.921Z,6.94
2023-02-05T00:26:15.615Z,7.00
2023-02-05T00:28:43.135Z,7.02
2023-02-05T00:31:12.927Z,7.08
2023-02-05T00:33:40.042Z,7.14
2023-02-05T00:36:12.874Z,7.16
2023-02-05T00:38:40.502Z,7.09
2023-02-05T00:41:07.547Z,7.03
2023-02-05T00:43:35.897Z,6.90
2023-02-05T00:46:02.920Z,6.78
2023-02-05T00:48:30.157Z,6.73
2023-02-05T00:50:57.302Z,6.70
2023-02-05T00:53:25.547Z,6.65
2023-02-05T00:55:52.864Z,6.54
2023-02-05T00:58:19.940Z,6.45
2023-02-05T01:00:51.107Z,6.43
2023-02-05T01:03:18.556Z,6.46
2023-02-05T01:05:46.022Z,6.38
2023-02-05T01:08:14.294Z,6.29
2023-02-05T01:10:45.136Z,6.24
2023-02-05T01:13:12.582Z,6.21
2023-02-05T01:15:40.210Z,6.24
2023-02-05T01:18:09.261Z,6.30
2023-02-05T01:20:37.624Z,6.33
2023-02-05T01:23:04.561Z,6.32
2023-02-05T01:25:32.154Z,6.36
2023-02-05T01:27:59.251Z,6.45
2023-02-05T01:30:26.205Z,6.57
2023-02-05T01:32:53.105Z,6.66
2023-02-05T01:35:21.357Z,6.65
2023-02-05T01:37:48.235Z,6.67
2023-02-05T01:40:16.613Z,6.71
2023-02-05T01:42:43.809Z,6.73
2023-02-05T01:45:51.927Z,6.68
2023-02-05T01:48:27.673Z,6.70
2023-02-05T01:51:01.963Z,6.69
2023-02-05T01:53:33.170Z,6.73
2023-02-05T01:56:04.814Z,6.79
2023-02-05T01:58:39.592Z,6.90
2023-02-05T02:01:07.004Z,6.93
2023-02-05T02:03:34.054Z,6.94
2023-02-05T02:06:04.660Z,6.93
2023-02-05T02:08:33.577Z,6.93
2023-02-05T02:11:04.627Z,6.96
2023-02-05T02:13:34.725Z,6.99
2023-02-05T02:16:03.114Z,7.05
2023-02-05T02:18:32.507Z,7.16
2023-02-05T02:21:38.841Z,7.12
2023-02-05T02:24:49.047Z,7.14
2023-02-05T02:27:36.598Z,7.20
2023-02-05T02:30:11.968Z,7.19
2023-02-05T02:32:43.078Z,7.14
2023-02-05T02:35:20.917Z,7.14
2023-02-05T02:37:56.367Z,7.21
2023-02-05T02:40:32.022Z,7.22
2023-02-05T02:43:08.831Z,7.25
2023-02-05T02:45:46.180Z,7.37
2023-02-05T02:48:17.867Z,7.44
2023-02-05T02:50:50.753Z,7.49
2023-02-05T02:53:22.810Z,7.53
2023-02-05T02:55:54.400Z,7.50
2023-02-05T02:58:29.600Z,7.48
2023-02-05T03:00:59.017Z,7.47
2023-02-05T03:03:30.261Z,7.46
2023-02-05T03:06:03.848Z,7.42
2023-02-05T03:08:38.380Z,7.37
2023-02-05T03:11:12.685Z,7.37
2023-02-05T03:13:42.618Z,7.35
2023-02-05T03:16:11.462Z,7.33
2023-02-05T03:18:38.835Z,7.31
2023-02-05T03:21:13.680Z,7.34
2023-02-05T03:23:40.920Z,7.30
2023-02-05T03:26:25.337Z,7.30
2023-02-05T03:28:54.913Z,7.31
2023-02-05T03:31:31.648Z,7.31
2023-02-05T03:34:19.692Z,7.31
2023-02-05T03:37:03.885Z,7.27
2023-02-05T03:39:51.600Z,7.30
2023-02-05T03:42:34.314Z,7.33
2023-02-05T03:45:24.826Z,7.35
2023-02-05T03:48:17.490Z,7.33
2023-02-05T03:50:54.098Z,7.34
2023-02-05T03:53:31.361Z,7.39
2023-02-05T03:56:07.282Z,7.40
2023-02-05T03:58:41.495Z,7.36
2023-02-05T04:01:12.145Z,7.36
2023-02-05T04:03:40.074Z,7.30
2023-02-05T04:06:08.091Z,7.32
2023-02-05T04:08:34.962Z,7.34
2023-02-05T04:11:01.971Z,7.30
2023-02-05T04:13:28.840Z,7.23
2023-02-05T04:15:55.755Z,7.17
2023-02-05T04:18:24.148Z,7.10
2023-02-05T04:20:51.041Z,7.09
2023-02-05T04:23:18.376Z,7.02
2023-02-05T04:25:45.309Z,7.05
2023-02-05T04:28:12.392Z,7.14
2023-02-05T04:30:40.009Z,7.20
2023-02-05T04:33:06.999Z,7.15
2023-02-05T04:35:35.633Z,7.15
2023-02-05T04:38:02.780Z,7.07
2023-02-05T04:40:29.888Z,7.08
2023-02-05T04:42:56.858Z,7.15
2023-02-05T04:45:24.030Z,7.19
2023-02-05T04:47:50.995Z,7.18
2023-02-05T04:50:18.284Z,7.23
2023-02-05T04:52:46.460Z,7.32
2023-02-05T04:55:13.313Z,7.32
2023-02-05T04:57:40.181Z,7.32
2023-02-05T05:00:09.295Z,7.28
2023-02-05T05:02:36.154Z,7.22
2023-02-05T05:05:03.125Z,7.25
2023-02-05T05:07:30.747Z,7.30
2023-02-05T05:09:58.935Z,7.35
2023-02-05T05:12:25.813Z,7.41
2023-02-05T05:14:52.692Z,7.43
2023-02-05T05:17:19.562Z,7.39
2023-02-05T05:19:46.423Z,7.31
2023-02-05T05:22:13.440Z,7.30
2023-02-05T05:24:40.359Z,7.27
2023-02-05T05:27:08.656Z,7.28
2023-02-05T05:29:35.795Z,7.17
2023-02-05T05:32:03.013Z,7.11
2023-02-05T05:34:29.916Z,7.00
2023-02-05T05:36:56.832Z,6.79
2023-02-05T05:39:42.401Z,6.67
2023-02-05T05:42:30.627Z,6.56
2023-02-05T05:44:57.534Z,6.62
2023-02-05T05:47:24.587Z,6.72
2023-02-05T05:49:51.557Z,6.90
2023-02-05T05:52:18.473Z,7.06
2023-02-05T05:54:46.211Z,7.12
2023-02-05T05:57:14.493Z,7.17
2023-02-05T05:59:41.454Z,7.17
2023-02-05T06:02:08.424Z,7.18
2023-02-05T06:04:35.347Z,7.17
2023-02-05T06:07:02.295Z,7.22
2023-02-05T06:09:29.335Z,7.24
2023-02-05T06:11:56.301Z,7.15
2023-02-05T06:14:24.527Z,7.16
2023-02-05T06:16:52.171Z,7.24
2023-02-05T06:19:19.066Z,7.32
2023-02-05T06:21:45.954Z,7.40
2023-02-05T06:24:12.803Z,7.51
2023-02-05T06:26:39.674Z,7.55
2023-02-05T06:29:06.517Z,7.49
2023-02-05T06:31:34.751Z,7.48
2023-02-05T06:34:01.810Z,7.47
2023-02-05T06:36:28.668Z,7.50
2023-02-05T06:38:55.538Z,7.53
2023-02-05T06:41:22.551Z,7.57
2023-02-05T06:43:49.435Z,7.56
2023-02-05T06:46:16.345Z,7.55
2023-02-05T06:48:44.534Z,7.53
2023-02-05T06:51:13.315Z,7.47
2023-02-05T06:53:40.278Z,7.46
2023-02-05T06:56:07.682Z,7.37
2023-02-05T06:58:34.588Z,7.39
2023-02-05T07:01:02.768Z,7.35
2023-02-05T07:03:29.877Z,7.25
2023-02-05T07:06:03.269Z,7.24
2023-02-05T07:08:30.552Z,7.25
2023-02-05T07:10:57.853Z,7.30
2023-02-05T07:13:25.340Z,7.32
2023-02-05T07:15:52.544Z,7.34
2023-02-05T07:18:19.518Z,7.36
2023-02-05T07:20:46.512Z,7.43
2023-02-05T07:23:14.763Z,7.48
2023-02-05T07:25:41.835Z,7.50
2023-02-05T07:28:09.115Z,7.52
2023-02-05T07:30:36.298Z,7.53
2023-02-05T07:33:03.786Z,7.60
2023-02-05T07:35:32.112Z,7.65
2023-02-05T07:37:59.338Z,7.65
2023-02-05T07:40:27.739Z,7.61
2023-02-05T07:42:55.155Z,7.55
2023-02-05T07:45:22.145Z,7.45
2023-02-05T07:47:50.434Z,7.38
2023-02-05T07:50:17.781Z,7.37
2023-02-05T07:52:44.787Z,7.38
2023-02-05T07:55:11.649Z,7.31
2023-02-05T07:57:40.564Z,7.30
2023-02-05T08:00:09.785Z,7.30
2023-02-05T08:02:36.671Z,7.33
2023-02-05T08:05:03.707Z,7.36
2023-02-05T08:07:30.604Z,7.43
2023-02-05T08:09:57.563Z,7.51
2023-02-05T08:12:24.548Z,7.61
2023-02-05T08:14:52.957Z,7.72
2023-02-05T08:17:19.829Z,7.76
2023-02-05T08:19:46.765Z,7.81
2023-02-05T08:22:13.715Z,7.87
2023-02-05T08:24:40.621Z,7.83
2023-02-05T08:27:07.583Z,7.87
2023-02-05T08:29:34.488Z,7.87
2023-02-05T08:32:02.722Z,7.81
2023-02-05T08:34:29.799Z,7.71
2023-02-05T08:36:57.638Z,7.50
2023-02-05T08:39:26.013Z,7.40
2023-02-05T08:41:54.066Z,7.34
2023-02-05T08:44:22.255Z,7.30
2023-02-05T08:46:50.556Z,7.20
2023-02-05T08:49:19.121Z,7.25
2023-02-05T08:51:46.195Z,7.27
2023-02-05T08:54:15.034Z,7.34
2023-02-05T08:56:44.320Z,7.45
2023-02-05T08:59:12.546Z,7.55
2023-02-05T09:01:41.059Z,7.65
2023-02-05T09:04:12.090Z,7.73
2023-02-05T09:06:40.418Z,7.81
2023-02-05T09:09:07.324Z,7.87
2023-02-05T09:11:34.485Z,7.96
2023-02-05T09:14:01.483Z,8.05
2023-02-05T09:16:28.645Z,8.10
2023-02-05T09:18:57.358Z,8.14
2023-02-05T09:21:25.099Z,8.19
2023-02-05T09:23:54.663Z,8.27
2023-02-05T09:26:24.126Z,8.36
2023-02-05T09:28:50.981Z,8.38
2023-02-05T09:31:20.368Z,8.32
2023-02-05T09:33:47.581Z,8.34
2023-02-05T09:36:17.593Z,8.41
2023-02-05T09:38:45.945Z,8.47
2023-02-05T09:41:26.509Z,8.46
2023-02-05T09:43:59.294Z,8.50
2023-02-05T09:46:45.101Z,8.60
2023-02-05T09:49:18.649Z,8.71
2023-02-05T09:51:50.191Z,8.83
2023-02-05T09:54:24.967Z,8.87
2023-02-05T09:56:57.711Z,8.87
2023-02-05T09:59:28.056Z,8.91
2023-02-05T10:01:59.214Z,8.92
2023-02-05T10:04:27.349Z,8.95
2023-02-05T10:07:18.655Z,8.95
2023-02-05T10:10:25.747Z,8.96
2023-02-05T10:13:27.867Z,9.00
2023-02-05T10:16:30.667Z,9.05
2023-02-05T10:19:20.778Z,9.09
2023-02-05T10:22:11.656Z,9.17
2023-02-05T10:25:37.359Z,9.18
2023-02-05T10:28:29.046Z,9.23
2023-02-05T10:31:04.326Z,9.29
2023-02-05T10:33:46.717Z,9.35
2023-02-05T10:36:15.619Z,9.45
2023-02-05T10:38:45.556Z,9.54
2023-02-05T10:41:20.973Z,9.63
2023-02-05T10:43:53.416Z,9.68
2023-02-05T10:46:20.464Z,9.71
2023-02-05T10:48:57.056Z,9.72
2023-02-05T10:51:35.192Z,9.71
2023-02-05T10:54:02.222Z,9.77
2023-02-05T10:56:29.169Z,9.84
2023-02-05T10:59:01.247Z,9.91
2023-02-05T11:01:35.932Z,10.00
2023-02-05T11:04:11.873Z,10.07
2023-02-05T11:06:47.720Z,10.13
2023-02-05T11:09:34.424Z,10.21
2023-02-05T11:12:05.255Z,10.29
2023-02-05T11:14:37.368Z,10.36
2023-02-05T11:17:19.678Z,10.40
2023-02-05T11:19:54.305Z,10.40
2023-02-05T11:22:27.772Z,10.43
2023-02-05T11:25:13.541Z,10.46
2023-02-05T11:27:40.612Z,10.48
2023-02-05T11:30:53.479Z,10.51
2023-02-05T11:33:31.289Z,10.58
2023-02-05T11:36:02.796Z,10.65
2023-02-05T11:38:43.670Z,10.68
2023-02-05T11:41:14.276Z,10.66
2023-02-05T11:43:50.627Z,10.56
2023-02-05T11:46:22.682Z,10.48
2023-02-05T11:48:58.114Z,10.40
2023-02-05T11:51:40.773Z,10.31
2023-02-05T11:54:22.170Z,10.24
2023-02-05T11:57:05.619Z,10.18
2023-02-05T11:59:33.934Z,10.16
2023-02-05T12:02:31.975Z,10.11
2023-02-05T12:05:08.969Z,10.13
2023-02-05T12:07:44.046Z,10.11
2023-02-05T12:10:17.743Z,10.10
2023-02-05T12:13:00.182Z,10.08
2023-02-05T12:15:32.119Z,10.09
2023-02-05T12:18:16.667Z,10.07
2023-02-05T12:21:07.033Z,10.13
2023-02-05T12:24:07.095Z,10.10
2023-02-05T12:26:38.734Z,10.11
2023-02-05T12:29:33.595Z,10.06
2023-02-05T12:32:13.318Z,10.04
2023-02-05T12:35:01.647Z,10.02
2023-02-05T12:37:46.072Z,9.99
2023-02-05T12:40:34.323Z,9.98
2023-02-05T12:43:14.923Z,10.00
2023-02-05T12:45:54.789Z,9.99
2023-02-05T12:48:44.548Z,9.98
2023-02-05T12:51:44.666Z,9.97
2023-02-05T12:54:33.352Z,10.00
2023-02-05T12:57:05.751Z,10.04
2023-02-05T12:59:42.904Z,10.06
2023-02-05T13:02:22.886Z,10.11
2023-02-05T13:05:02.414Z,10.16
2023-02-05T13:07:38.737Z,10.20
2023-02-05T13:10:16.094Z,10.19
2023-02-05T13:12:50.647Z,10.19
2023-02-05T13:15:21.382Z,10.22
2023-02-05T13:17:59.907Z,10.27
2023-02-05T13:20:50.694Z,10.33
2023-02-05T13:23:37.555Z,10.41
2023-02-05T13:26:16.186Z,10.44
2023-02-05T13:28:47.737Z,10.47
2023-02-05T13:31:27.670Z,10.49
2023-02-05T13:34:00.693Z,10.54
2023-02-05T13:37:11.415Z,10.52
2023-02-05T13:40:15.433Z,10.46
2023-02-05T13:43:27.803Z,10.39
2023-02-05T13:46:32.393Z,10.38
2023-02-05T13:49:59.014Z,10.40
2023-02-05T13:52:58.434Z,10.48
2023-02-05T13:56:04.111Z,10.54
2023-02-05T13:58:35.620Z,10.65
2023-02-05T14:01:07.618Z,10.73
2023-02-05T14:03:39.460Z,10.76
2023-02-05T14:06:21.567Z,10.74
2023-02-05T14:08:51.751Z,10.72
2023-02-05T14:11:20.420Z,10.69
2023-02-05T14:14:25.895Z,10.65
2023-02-05T14:16:54.887Z,10.67
2023-02-05T14:19:45.359Z,10.65
2023-02-05T14:22:34.775Z,10.61
2023-02-05T14:25:01.769Z,10.65
2023-02-05T14:27:50.147Z,10.63
2023-02-05T14:30:50.460Z,10.60
2023-02-05T14:33:42.804Z,10.58
2023-02-05T14:36:35.543Z,10.58
2023-02-05T14:39:18.841Z,10.60
2023-02-05T14:41:51.510Z,10.58
2023-02-05T14:44:26.238Z,10.55
2023-02-05T14:47:02.198Z,10.58
2023-02-05T14:49:38.821Z,10.60
2023-02-05T14:52:28.650Z,10.62
2023-02-05T14:55:01.534Z,10.67
2023-02-05T14:57:53.598Z,10.65
2023-02-05T15:00:31.490Z,10.61
2023-02-05T15:03:28.769Z,10.52
2023-02-05T15:06:04.400Z,10.51
2023-02-05T15:08:52.309Z,10.52
2023-02-05T15:11:50.966Z,10.50
2023-02-05T15:14:51.483Z,10.51
2023-02-05T15:17:52.466Z,10.54
2023-02-05T15:20:27.667Z,10.57
2023-02-05T15:23:03.418Z,10.56
2023-02-05T15:25:44.160Z,10.53
2023-02-05T15:28:27.022Z,10.47
2023-02-05T15:31:22.701Z,10.41
2023-02-05T15:34:02.709Z,10.44
2023-02-05T15:36:41.589Z,10.47
2023-02-05T15:39:30.540Z,10.47
2023-02-05T15:42:01.537Z,10.51
2023-02-05T15:44:31.580Z,10.53
2023-02-05T15:47:04.776Z,10.55
2023-02-05T15:49:49.807Z,10.54
2023-02-05T15:52:32.407Z,10.51
2023-02-05T15:55:15.196Z,10.49
2023-02-05T15:57:44.879Z,10.49
2023-02-05T16:00:26.936Z,10.50
2023-02-05T16:03:05.222Z,10.53
2023-02-05T16:05:54.390Z,10.56
2023-02-05T16:08:26.569Z,10.57
2023-02-05T16:10:59.996Z,10.56
2023-02-05T16:13:30.404Z,10.58
2023-02-05T16:16:09.319Z,10.59
2023-02-05T16:18:46.305Z,10.60
2023-02-05T16:21:23.490Z,10.61
2023-02-05T16:23:59.889Z,10.58
2023-02-05T16:26:43.177Z,10.52
2023-02-05T16:29:25.887Z,10.46
2023-02-05T16:32:10.889Z,10.40
2023-02-05T16:34:48.805Z,10.37
2023-02-05T16:37:25.314Z,10.33
2023-02-05T16:40:02.155Z,10.29
2023-02-05T16:42:40.170Z,10.25
2023-02-05T16:45:24.076Z,10.22
2023-02-05T16:48:21.957Z,10.18
2023-02-05T16:50:51.962Z,10.22
2023-02-05T16:53:28.926Z,10.23
2023-02-05T16:56:01.847Z,10.25
2023-02-05T16:58:43.404Z,10.26
2023-02-05T17:01:11.010Z,10.29
2023-02-05T17:03:49.089Z,10.28
2023-02-05T17:06:37.781Z,10.28
2023-02-05T17:09:06.352Z,10.31
2023-02-05T17:11:38.111Z,10.32
2023-02-05T17:14:20.879Z,10.33
2023-02-05T17:17:00.121Z,10.33
2023-02-05T17:19:33.453Z,10.33
2023-02-05T17:22:21.028Z,10.29
2023-02-05T17:24:52.042Z,10.29
2023-02-05T17:27:30.512Z,10.27
2023-02-05T17:30:00.929Z,10.24
2023-02-05T17:32:32.897Z,10.21
2023-02-05T17:35:12.706Z,10.18
2023-02-05T17:37:40.335Z,10.14
2023-02-05T17:40:12.720Z,10.09
2023-02-05T17:42:46.351Z,10.04
2023-02-05T17:45:20.115Z,9.98
2023-02-05T17:47:53.155Z,9.94
2023-02-05T17:50:21.000Z,9.92
2023-02-05T17:52:55.464Z,9.88
2023-02-05T17:55:32.815Z,9.82
2023-02-05T17:58:03.850Z,9.76
2023-02-05T18:00:34.372Z,9.73
2023-02-05T18:03:03.003Z,9.71
2023-02-05T18:05:30.011Z,9.70
2023-02-05T18:08:03.842Z,9.69
2023-02-05T18:10:35.147Z,9.67
2023-02-05T18:13:09.604Z,9.66
2023-02-05T18:15:45.017Z,9.67
2023-02-05T18:18:12.061Z,9.66
2023-02-05T18:20:39.181Z,9.63
2023-02-05T18:23:28.302Z,9.59
2023-02-05T18:25:58.254Z,9.58
2023-02-05T18:28:29.036Z,9.59
2023-02-05T18:30:58.731Z,9.59
2023-02-05T18:33:25.935Z,9.60
2023-02-05T18:35:53.326Z,9.60
2023-02-05T18:38:21.326Z,9.62
2023-02-05T18:40:48.209Z,9.64
2023-02-05T18:43:16.916Z,9.63
2023-02-05T18:45:43.916Z,9.61
2023-02-05T18:48:10.848Z,9.58
2023-02-05T18:50:37.872Z,9.57
2023-02-05T18:53:04.805Z,9.52
2023-02-05T18:55:35.372Z,9.48
2023-02-05T18:58:04.698Z,9.42
2023-02-05T19:00:33.050Z,9.36
2023-02-05T19:03:00.223Z,9.33
2023-02-05T19:05:27.384Z,9.33
2023-02-05T19:07:54.401Z,9.38
2023-02-05T19:10:21.398Z,9.44
2023-02-05T19:12:50.359Z,9.52
2023-02-05T19:15:17.382Z,9.61
2023-02-05T19:17:45.580Z,9.64
2023-02-05T19:20:12.649Z,9.69
2023-02-05T19:22:39.635Z,9.73
2023-02-05T19:25:09.606Z,9.75
2023-02-05T19:27:36.489Z,9.77
2023-02-05T19:30:05.766Z,9.78
2023-02-05T19:32:34.104Z,9.79
2023-02-05T19:35:03.813Z,9.78
2023-02-05T19:37:31.177Z,9.77
2023-02-05T19:39:58.161Z,9.77
2023-02-05T19:42:27.132Z,9.76
2023-02-05T19:44:54.027Z,9.77
2023-02-05T19:47:21.497Z,9.76
2023-02-05T19:49:48.369Z,9.77
2023-02-05T19:52:16.623Z,9.76
2023-02-05T19:54:43.522Z,9.75
2023-02-05T19:57:10.414Z,9.74
2023-02-05T19:59:37.346Z,9.74
2023-02-05T20:02:04.214Z,9.73
2023-02-05T20:04:31.207Z,9.71
2023-02-05T20:06:59.779Z,9.68
2023-02-05T20:09:28.311Z,9.62
2023-02-05T20:11:55.617Z,9.57
2023-02-05T20:14:23.718Z,9.50
2023-02-05T20:16:51.964Z,9.45
2023-02-05T20:19:19.914Z,9.39
2023-02-05T20:21:48.360Z,9.34
2023-02-05T20:24:16.337Z,9.30
2023-02-05T20:26:48.190Z,9.26
2023-02-05T20:29:34.281Z,9.21
2023-02-05T20:32:01.911Z,9.13
2023-02-05T20:34:30.785Z,9.09
2023-02-05T20:37:02.000Z,9.05
2023-02-05T20:39:29.959Z,9.02
2023-02-05T20:41:59.543Z,8.99
2023-02-05T20:44:31.508Z,8.96
2023-02-05T20:46:58.354Z,8.91
2023-02-05T20:49:25.529Z,8.90
2023-02-05T20:51:53.134Z,8.86
2023-02-05T20:54:20.165Z,8.83
2023-02-05T20:56:49.753Z,8.80
2023-02-05T20:59:18.104Z,8.80
2023-02-05T21:01:45.180Z,8.78
2023-02-05T21:04:12.667Z,8.78
2023-02-05T21:06:40.860Z,8.79
2023-02-05T21:09:09.864Z,8.81
2023-02-05T21:11:38.357Z,8.82
2023-02-05T21:14:05.788Z,8.82
2023-02-05T21:16:35.599Z,8.78
2023-02-05T21:19:04.962Z,8.76
2023-02-05T21:21:34.429Z,8.76
2023-02-05T21:24:04.066Z,8.75
2023-02-05T21:26:34.965Z,8.73
2023-02-05T21:29:05.396Z,8.70
2023-02-05T21:31:39.252Z,8.66
2023-02-05T21:34:09.284Z,8.64
2023-02-05T21:36:36.284Z,8.60
2023-02-05T21:39:03.895Z,8.60
2023-02-05T21:41:31.453Z,8.55
2023-02-05T21:44:00.422Z,8.54
2023-02-05T21:46:29.653Z,8.50
2023-02-05T21:49:00.430Z,8.47
2023-02-05T21:51:31.155Z,8.44
2023-02-05T21:54:01.209Z,8.42
2023-02-05T21:56:31.630Z,8.38
2023-02-05T21:58:58.927Z,8.37
2023-02-05T22:01:28.673Z,8.35
2023-02-05T22:03:59.874Z,8.31
2023-02-05T22:06:30.785Z,8.30
2023-02-05T22:08:59.045Z,8.30
2023-02-05T22:11:27.874Z,8.29
2023-02-05T22:13:56.077Z,8.27
2023-02-05T22:16:26.497Z,8.24
2023-02-05T22:18:54.554Z,8.22
2023-02-05T22:21:26.839Z,8.19
2023-02-05T22:23:56.957Z,8.15
2023-02-05T22:26:27.353Z,8.13
2023-02-05T22:28:55.810Z,8.09
2023-02-05T22:31:22.854Z,8.07
2023-02-05T22:33:51.215Z,8.05
2023-02-05T22:36:23.357Z,8.03
2023-02-05T22:38:52.090Z,8.00
2023-02-05T22:41:23.500Z,7.97
2023-02-05T22:43:51.202Z,7.96
2023-02-05T22:46:21.529Z,7.93
2023-02-05T22:48:50.400Z,7.92
2023-02-05T22:51:23.717Z,7.91
2023-02-05T22:53:52.225Z,7.90
2023-02-05T22:56:21.416Z,7.90
2023-02-05T22:58:49.873Z,7.89
2023-02-05T23:01:19.387Z,7.89
2023-02-05T23:03:48.994Z,7.86
2023-02-05T23:06:19.846Z,7.83
2023-02-05T23:08:52.465Z,7.81
2023-02-05T23:11:20.867Z,7.80
2023-02-05T23:13:48.611Z,7.78
2023-02-05T23:16:18.165Z,7.75
2023-02-05T23:18:45.885Z,7.74
2023-02-05T23:21:16.326Z,7.72
2023-02-05T23:23:43.503Z,7.70
2023-02-05T23:26:15.331Z,7.68
2023-02-05T23:28:42.492Z,7.65
2023-02-05T23:31:09.617Z,7.63
2023-02-05T23:33:37.614Z,7.61
2023-02-05T23:36:07.553Z,7.60
2023-02-05T23:38:35.448Z,7.58
2023-02-05T23:41:02.585Z,7.56
2023-02-05T23:43:31.785Z,7.54
2023-02-05T23:45:59.176Z,7.53
2023-02-05T23:48:26.213Z,7.53
2023-02-05T23:50:54.964Z,7.54
2023-02-05T23:53:22.878Z,7.53
2023-02-05T23:55:52.866Z,7.53
2023-02-05T23:58:25.589Z,7.51
